Latest Weather Observations for Derby

IDW60801

Issued at 1:05 pm WST Wednesday 3 September 2014 (issued every 30 minutes, with the page automatically refreshed every 10 minutes)

About weather observations | Map of weather stations | Latest weather observations for WA | Other Formats
Station Details ID: 003032 Name: DERBY AERO Lat: -17.37 Lon: 123.66 Height: 6.2 m
Data from the previous 72 hours. | See also: Recent months at Derby
Date/Time
WST
Temp
°C
App
Temp
°C
Dew
Point
Rel
Hum
%
Delta-T
°C
Wind Press
QNH
hPa
Press
MSL
hPa
Rain
since 9 am
mm
Dir
 
Spd
km/h
Gust
km/h
Spd
kts
Gust
kts
03/01:00pm 35.2 31.0 -1.0 10 17.6 NNW 11 17 6 9 1012.9 1012.9 0.0
03/12:30pm 34.8 30.2 -1.3 10 17.4 NW 13 22 7 12 1013.4 1013.4 0.0
03/12:00pm 34.1 29.4 -1.8 10 17.1 NW 13 17 7 9 1013.9 1013.9 0.0
03/11:30am 33.5 29.1 -2.3 10 16.8 WNW 11 17 6 9 1014.4 1014.4 0.0
03/11:00am 33.0 27.6 -1.4 11 16.4 WNW 17 22 9 12 1014.8 1014.8 0.0
03/10:30am 33.4 27.8 0.1 12 16.3 NW 19 22 10 12 1015.3 1015.3 0.0
03/10:00am 32.1 28.9 3.1 16 14.8 W 9 15 5 8 1015.7 1015.7 0.0
03/09:30am 30.1 27.6 6.7 23 12.5 SW 9 15 5 8 1016.1 1016.1 0.0
03/09:00am 28.3 27.2 10.5 33 10.0 NNW 7 9 4 5 1016.2 1016.2 0.0
03/08:30am 25.8 26.1 14.9 51 6.5 NNW 7 9 4 5 1016.2 1016.2 0.0
03/08:00am 23.7 24.6 16.7 65 4.3 NNW 7 9 4 5 1016.1 1016.1 0.0
03/07:30am 21.5 22.8 17.1 76 2.7 NNW 6 7 3 4 1016.0 1016.0 0.0
03/07:00am 19.5 21.5 16.0 80 2.1 CALM 0 0 0 0 1015.9 1015.9 0.0
03/06:30am 15.8 15.3 12.2 79 2.0 N 6 7 3 4 1015.8 1015.8 0.0
03/06:00am 12.9 11.7 9.5 80 1.7 N 6 7 3 4 1015.8 1015.8 0.0
03/05:30am 13.6 12.3 9.8 78 2.0 N 7 11 4 6 1015.7 1015.7 0.0
03/05:00am 14.2 13.5 11.5 84 1.4 NNE 6 9 3 5 1015.5 1015.5 0.0
03/04:30am 14.7 13.6 10.5 76 2.2 N 7 9 4 5 1015.3 1015.3 0.0
03/04:00am 14.7 13.7 11.1 79 1.9 NNE 7 9 4 5 1015.2 1015.2 0.0
03/03:30am 14.7 14.0 11.5 81 1.7 N 6 7 3 4 1015.0 1015.0 0.0
03/03:00am 14.8 13.4 11.0 78 2.0 N 9 13 5 7 1014.9 1014.9 0.0
03/02:30am 15.0 14.7 11.6 80 1.8 NNE 4 9 2 5 1015.1 1015.1 0.0
03/02:00am 16.7 17.6 13.0 79 2.1 CALM 0 2 0 1 1015.4 1015.4 0.0
03/01:30am 16.2 17.0 12.4 78 2.1 CALM 0 0 0 0 1015.0 1015.0 0.0
03/01:00am 16.4 16.8 11.3 72 2.7 CALM 0 0 0 0 1014.9 1014.9 0.0
03/12:30am 17.6 17.0 11.6 68 3.3 S 6 7 3 4 1015.0 1015.0 0.0
03/12:00am 18.8 18.0 10.9 60 4.3 SSE 6 9 3 5 1014.9 1014.9 0.0
 
Date/Time
WST
Temp
°C
App
Temp
°C
Dew
Point
Rel
Hum
%
Delta-T
°C
Wind Press
QNH
hPa
Press
MSL
hPa
Rain
since 9 am
mm
Dir
 
Spd
km/h
Gust
km/h
Spd
kts
Gust
kts
02/11:30pm 17.7 15.7 8.8 56 4.6 SSE 9 9 5 5 1015.0 1015.0 0.0
02/11:00pm 20.8 19.8 10.3 51 5.7 SE 6 7 3 4 1015.0 1015.0 0.0
02/10:30pm 20.8 18.3 9.7 49 5.9 S 13 15 7 8 1014.8 1014.8 0.0
02/10:00pm 20.8 18.4 8.8 46 6.3 S 11 13 6 7 1014.5 1014.5 0.0
02/09:30pm 22.2 20.4 9.4 44 6.9 WSW 9 15 5 8 1014.6 1014.6 0.0
02/09:00pm 21.9 20.5 11.0 50 6.0 W 9 11 5 6 1014.6 1014.6 0.0
02/08:30pm 22.4 20.6 10.9 48 6.4 NW 11 13 6 7 1014.2 1014.2 0.0
02/08:00pm 23.5 22.2 11.2 46 6.9 N 9 9 5 5 1013.8 1013.8 0.0
02/07:30pm 23.8 22.4 10.8 44 7.2 NNW 9 11 5 6 1013.4 1013.4 0.0
02/07:00pm 24.3 22.0 10.6 42 7.6 N 13 15 7 8 1013.1 1013.1 0.0
02/06:30pm 25.4 22.4 9.3 36 8.8 NNW 15 17 8 9 1012.8 1012.8 0.0
02/06:00pm 26.5 22.9 8.5 32 9.7 NNW 17 20 9 11 1012.5 1012.5 0.0
02/05:30pm 28.7 24.2 6.1 24 11.9 NNW 19 22 10 12 1012.3 1012.3 0.0
02/05:00pm 29.9 24.7 7.2 24 12.3 NNW 24 28 13 15 1012.1 1012.1 0.0
02/04:30pm 33.7 27.9 2.5 14 15.9 WNW 22 26 12 14 1011.8 1011.8 0.0
02/04:00pm 34.3 28.5 -0.4 11 17.0 WNW 20 28 11 15 1011.7 1011.7 0.0
02/03:30pm 34.5 28.1 1.0 12 16.8 WNW 24 30 13 16 1011.6 1011.6 0.0
02/03:00pm 34.7 28.5 2.3 13 16.6 NW 24 30 13 16 1011.7 1011.7 0.0
02/02:30pm 34.6 28.9 6.8 18 15.3 NW 26 32 14 17 1011.9 1011.9 0.0
02/02:00pm 34.9 29.3 8.6 20 14.9 NW 28 33 15 18 1012.2 1012.2 0.0
02/01:30pm 36.2 32.4 8.9 19 15.6 NW 19 26 10 14 1012.6 1012.6 0.0
02/01:00pm 35.3 31.3 6.6 17 15.8 NW 17 20 9 11 1013.1 1013.1 0.0
02/12:30pm 35.8 31.1 -5.3 7 18.7 ESE 11 26 6 14 1013.5 1013.5 0.0
02/12:00pm 35.2 28.0 -5.7 7 18.4 ESE 24 35 13 19 1014.1 1014.1 0.0
02/11:30am 35.3 29.6 -3.9 8 18.2 E 17 30 9 16 1014.6 1014.6 0.0
02/11:00am 34.5 30.6 1.0 12 16.7 NNE 11 19 6 10 1015.1 1015.1 0.0
02/10:30am 33.9 28.6 -0.7 11 16.8 NE 17 24 9 13 1015.7 1015.7 0.0
02/10:00am 31.8 30.8 8.7 24 12.9 NE 4 9 2 5 1016.1 1016.1 0.0
02/09:30am 28.4 27.6 11.0 34 9.9 WSW 6 9 3 5 1016.5 1016.5 0.0
02/09:00am 26.0 25.9 13.2 45 7.5 SW 6 9 3 5 1016.6 1016.6 0.0
02/08:30am 24.9 25.7 13.8 50 6.5 SE 2 6 1 3 1016.4 1016.4 0.0
02/08:00am 21.9 23.2 14.0 61 4.6 CALM 0 6 0 3 1016.2 1016.2 0.0
02/07:30am 18.4 18.4 14.1 76 2.5 S 7 9 4 5 1016.0 1016.0 0.0
02/07:00am 17.2 18.2 13.3 78 2.2 CALM 0 0 0 0 1016.0 1016.0 0.0
02/06:30am 14.4 15.0 11.9 85 1.3 CALM 0 0 0 0 1016.0 1016.0 0.0
02/06:00am 13.2 13.0 10.4 83 1.5 NW 2 6 1 3 1015.6 1015.6 0.0
02/05:30am 13.9 13.7 11.8 87 1.1 N 4 7 2 4 1015.3 1015.3 0.0
02/05:00am 15.5 15.2 13.3 87 1.2 SE 7 11 4 6 1014.9 1014.9 0.0
02/04:30am 15.7 14.8 12.6 82 1.7 SE 9 13 5 7 1014.5 1014.5 0.0
02/04:00am 16.4 14.7 12.4 77 2.2 SE 13 15 7 8 1014.3 1014.3 0.0
02/03:30am 16.9 14.9 11.4 70 3.0 SE 13 17 7 9 1014.0 1014.0 0.0
02/03:00am 17.0 15.4 12.9 77 2.3 SSE 13 17 7 9 1013.8 1013.8 0.0
02/02:30am 17.3 15.5 12.0 71 2.9 SSE 13 15 7 8 1013.7 1013.7 0.0
02/02:00am 17.8 15.8 11.4 66 3.5 SSE 13 15 7 8 1013.9 1013.9 0.0
02/01:30am 18.2 15.9 10.3 60 4.2 SSE 13 17 7 9 1014.1 1014.1 0.0
02/01:00am 18.4 15.9 9.7 57 4.6 SE 13 15 7 8 1014.3 1014.3 0.0
02/12:30am 18.1 15.3 8.7 54 4.9 SE 13 15 7 8 1014.4 1014.4 0.0
02/12:00am 18.5 15.7 7.0 47 5.8 SE 11 13 6 7 1014.5 1014.5 0.0
 
Date/Time
WST
Temp
°C
App
Temp
°C
Dew
Point
Rel
Hum
%
Delta-T
°C
Wind Press
QNH
hPa
Press
MSL
hPa
Rain
since 9 am
mm
Dir
 
Spd
km/h
Gust
km/h
Spd
kts
Gust
kts
01/11:30pm 19.8 16.7 7.2 44 6.4 S 13 15 7 8 1014.7 1014.7 0.0
01/11:00pm 19.9 16.7 8.3 47 6.0 S 15 17 8 9 1014.7 1014.7 0.0
01/10:30pm 18.2 16.4 9.5 57 4.6 SSE 9 11 5 6 1014.6 1014.6 0.0
01/10:00pm 18.4 16.3 9.7 57 4.6 SSW 11 13 6 7 1014.7 1014.7 0.0
01/09:30pm 18.1 16.9 9.7 58 4.4 W 6 6 3 3 1014.7 1014.7 0.0
01/09:00pm 17.9 17.3 9.0 56 4.6 W 2 6 1 3 1014.8 1014.8 0.0
01/08:30pm 20.7 20.4 12.7 60 4.5 NNW 6 7 3 4 1014.6 1014.6 0.0
01/08:00pm 21.2 20.1 13.1 60 4.6 NNW 11 11 6 6 1014.4 1014.4 0.0
01/07:30pm 21.8 21.1 13.2 58 4.9 N 9 11 5 6 1014.1 1014.1 0.0
01/07:00pm 22.4 21.5 11.2 49 6.2 NNW 7 9 4 5 1013.7 1013.7 0.0
01/06:30pm 22.9 21.1 9.3 42 7.3 NNW 9 11 5 6 1013.2 1013.2 0.0
01/06:00pm 24.1 22.1 8.5 37 8.3 NW 9 11 5 6 1013.1 1013.1 0.0
01/05:30pm 26.6 23.8 7.1 29 10.3 NW 11 15 6 8 1012.9 1012.9 0.0
01/05:00pm 28.9 25.2 6.3 24 11.9 NW 15 19 8 10 1012.7 1012.7 0.0
01/04:30pm 29.7 25.1 5.7 22 12.6 NW 19 22 10 12 1012.6 1012.6 0.0
01/04:00pm 30.2 25.7 6.8 23 12.6 NW 20 24 11 13 1012.5 1012.5 0.0
01/03:30pm 31.2 24.9 1.5 15 14.7 NW 24 26 13 14 1012.4 1012.4 0.0
01/03:00pm 32.0 25.8 2.1 15 15.0 NW 24 28 13 15 1012.4 1012.4 0.0
01/02:30pm 32.2 26.2 3.2 16 14.8 NW 24 28 13 15 1012.4 1012.4 0.0
01/02:00pm 32.6 27.5 6.0 19 14.3 NNW 22 26 12 14 1012.6 1012.6 0.0
01/01:30pm 32.0 26.9 6.2 20 13.8 NNW 22 28 12 15 1013.0 1013.0 0.0
01/01:00pm 32.1 27.5 5.6 19 14.1 NNW 19 26 10 14 1013.3 1013.3 0.0
01/12:30pm 31.6 27.0 6.6 21 13.5 NNW 20 26 11 14 1013.8 1013.8 0.0
01/12:00pm 30.6 27.0 8.3 25 12.3 NW 17 22 9 12 1014.3 1014.3 0.0
01/11:30am 30.4 27.2 7.0 23 12.6 WNW 13 19 7 10 1014.8 1014.8 0.0
01/11:00am 30.0 27.8 7.8 25 12.1 WNW 9 15 5 8 1015.2 1015.2 0.0
01/10:30am 28.9 25.9 7.5 26 11.5 NW 13 15 7 8 1015.7 1015.7 0.0
01/10:00am 29.0 25.4 0.7 16 13.6 SW 9 13 5 7 1015.8 1015.8 0.0
01/09:30am 26.9 24.1 3.4 22 11.7 NNW 7 11 4 6 1016.0 1016.0 0.0
01/09:00am 25.6 23.9 4.1 25 10.7 N 2 9 1 5 1016.0 1016.0 0.0
01/08:30am 23.5 21.4 5.9 32 8.9 N 6 7 3 4 1016.0 1016.0 0.0
01/08:00am 21.7 19.6 5.6 35 8.0 NNE 6 7 3 4 1016.0 1016.0 0.0
01/07:30am 19.4 17.6 7.8 47 5.9 NNE 7 9 4 5 1015.7 1015.7 0.0
01/07:00am 17.2 15.1 6.7 50 5.2 NE 7 7 4 4 1015.4 1015.4 0.0
01/06:30am 14.8 12.6 6.1 56 4.2 ENE 7 11 4 6 1015.2 1015.2 0.0
01/06:00am 13.7 11.1 6.3 61 3.5 NE 9 11 5 6 1014.8 1014.8 0.0
01/05:30am 13.4 12.4 5.6 59 3.7 CALM 0 0 0 0 1014.4 1014.4 0.0
01/05:00am 14.2 11.5 5.6 56 4.1 SSE 9 11 5 6 1014.0 1014.0 0.0
01/04:30am 13.7 10.9 5.3 57 3.9 SSE 9 11 5 6 1013.7 1013.7 0.0
01/04:00am 13.9 11.0 4.8 54 4.2 SSE 9 9 5 5 1013.6 1013.6 0.0
01/03:30am 13.0 10.2 5.2 59 3.6 SSE 9 9 5 5 1013.6 1013.6 0.0
01/03:00am 13.3 11.0 2.8 49 4.6 S 4 6 2 3 1013.5 1013.5 0.0
01/02:30am 16.2 13.6 4.3 45 5.6 SSE 7 9 4 5 1013.5 1013.5 0.0
01/02:00am 16.0 13.1 4.4 46 5.4 SE 9 11 5 6 1013.5 1013.5 0.0
01/01:30am 17.3 14.0 4.3 42 6.1 SSE 11 11 6 6 1013.4 1013.4 0.0
01/01:00am 17.7 14.9 5.3 44 6.0 SSE 9 11 5 6 1013.4 1013.4 0.0
01/12:30am 16.9 14.2 5.8 48 5.4 SSE 9 11 5 6 1013.4 1013.4 0.0
01/12:00am 17.5 15.0 6.7 49 5.4 S 9 13 5 7 1013.5 1013.5 0.0
 
Date/Time
WST
Temp
°C
App
Temp
°C
Dew
Point
Rel
Hum
%
Delta-T
°C
Wind Press
QNH
hPa
Press
MSL
hPa
Rain
since 9 am
mm
Dir
 
Spd
km/h
Gust
km/h
Spd
kts
Gust
kts
31/11:30pm 15.4 12.8 7.7 60 3.8 S 11 11 6 6 1013.6 1013.6 0.0
31/11:00pm 16.8 15.2 8.8 59 4.1 S 7 7 4 4 1013.7 1013.7 0.0
31/10:30pm 17.1 15.7 9.5 61 4.0 S 7 7 4 4 1013.5 1013.5 0.0
31/10:00pm 17.3 16.1 10.2 63 3.8 SSW 7 9 4 5 1013.4 1013.4 0.0
31/09:30pm 19.3 18.4 10.8 58 4.6 WSW 6 7 3 4 1013.4 1013.4 0.0
31/09:00pm 20.2 19.3 10.6 54 5.2 N 6 7 3 4 1013.4 1013.4 0.0
31/08:30pm 21.5 20.3 11.5 53 5.6 N 9 11 5 6 1013.4 1013.4 0.0
31/08:00pm 21.6 20.3 11.3 52 5.7 NNW 9 9 5 5 1013.3 1013.3 0.0
31/07:30pm 21.7 20.2 10.5 49 6.1 NNW 9 11 5 6 1013.1 1013.1 0.0
31/07:00pm 22.7 20.6 9.8 44 7.0 NNW 11 15 6 8 1012.8 1012.8 0.0
31/06:30pm 23.7 21.1 9.3 40 7.8 NNW 13 15 7 8 1012.6 1012.6 0.0
31/06:00pm 25.1 21.3 7.7 33 9.2 NNW 17 19 9 10 1012.2 1012.2 0.0
31/05:30pm 26.8 21.9 5.1 25 11.1 NNW 20 26 11 14 1012.0 1012.0 0.0
31/05:00pm 28.8 23.7 4.3 21 12.5 NW 20 24 11 13 1012.0 1012.0 0.0
31/04:30pm 29.9 23.1 3.0 18 13.5 NNW 28 32 15 17 1011.8 1011.8 0.0
31/04:00pm 30.6 24.1 2.8 17 14.0 WNW 26 32 14 17 1011.6 1011.6 0.0
31/03:30pm 31.0 24.5 4.7 19 13.7 WNW 28 32 15 17 1011.5 1011.5 0.0
31/03:00pm 31.9 26.4 7.5 22 13.4 WNW 26 32 14 17 1011.5 1011.5 0.0
31/02:30pm 32.9 26.8 4.6 17 14.9 WNW 26 33 14 18 1011.5 1011.5 0.0
31/02:00pm 32.2 26.4 7.8 22 13.5 NW 28 35 15 19 1011.9 1011.9 0.0
31/01:30pm 32.6 26.0 4.4 17 14.7 NNW 28 35 15 19 1012.2 1012.2 0.0

Other Formats:

Comma delimited format used in spreadsheet applications
http://www.bom.gov.au/fwo/IDW60801/IDW60801.95205.axf

JavaScript Object Notation format (JSON) in row-major order
http://www.bom.gov.au/fwo/IDW60801/IDW60801.95205.json